createdAt,value
2022-10-23T00:00:58.283Z,55.88
2022-10-23T00:01:58.281Z,52.19
2022-10-23T00:02:58.358Z,49.81
2022-10-23T00:03:58.249Z,50.57
2022-10-23T00:04:58.249Z,46.35
2022-10-23T00:05:58.249Z,48.35
2022-10-23T00:06:58.245Z,52.28
2022-10-23T00:07:58.224Z,47.49
2022-10-23T00:08:58.224Z,54.36
2022-10-23T00:09:58.213Z,48.24
2022-10-23T00:10:58.223Z,51.13
2022-10-23T00:11:58.222Z,51.73
2022-10-23T00:12:58.201Z,48.43
2022-10-23T00:13:58.187Z,50.36
2022-10-23T00:14:58.185Z,55.17
2022-10-23T00:15:58.211Z,53.06
2022-10-23T00:16:58.185Z,54.24
2022-10-23T00:17:58.161Z,51.21
2022-10-23T00:18:58.189Z,51.44
2022-10-23T00:19:58.154Z,51.90
2022-10-23T00:20:58.141Z,49.13
2022-10-23T00:21:58.157Z,47.59
2022-10-23T00:22:58.136Z,49.94
2022-10-23T00:23:58.187Z,50.98
2022-10-23T00:24:58.132Z,51.59
2022-10-23T00:25:58.107Z,50.70
2022-10-23T00:26:58.113Z,51.76
2022-10-23T00:27:58.106Z,54.34
2022-10-23T00:28:58.094Z,52.00
2022-10-23T00:29:58.089Z,51.43
2022-10-23T00:30:58.084Z,53.89
2022-10-23T00:31:58.066Z,50.52
2022-10-23T00:32:58.081Z,49.69
2022-10-23T00:33:58.057Z,47.51
2022-10-23T00:34:58.049Z,51.91
2022-10-23T00:35:58.048Z,55.83
2022-10-23T00:36:58.037Z,51.15
2022-10-23T00:37:58.045Z,53.00
2022-10-23T00:38:58.033Z,47.81
2022-10-23T00:39:58.021Z,49.32
2022-10-23T00:40:58.018Z,46.17
2022-10-23T00:41:58.005Z,52.32
2022-10-23T00:42:58.009Z,49.31
2022-10-23T00:43:57.985Z,51.12
2022-10-23T00:44:58.002Z,55.36
2022-10-23T00:45:57.981Z,50.32
2022-10-23T00:46:58.052Z,55.09
2022-10-23T00:47:57.973Z,54.79
2022-10-23T00:48:57.993Z,49.72
2022-10-23T00:49:57.959Z,53.80
2022-10-23T00:50:57.949Z,53.52
2022-10-23T00:51:57.942Z,50.08
2022-10-23T00:52:57.930Z,53.36
2022-10-23T00:54:12.649Z,47.96
2022-10-23T00:54:58.944Z,49.75
2022-10-23T00:55:57.918Z,51.26
2022-10-23T00:56:57.904Z,47.36
2022-10-23T00:57:57.904Z,51.72
2022-10-23T00:58:57.909Z,51.24
2022-10-23T00:59:57.889Z,47.93
2022-10-23T01:00:57.919Z,49.59
2022-10-23T01:01:57.982Z,49.30
2022-10-23T01:02:57.866Z,52.47
2022-10-23T01:03:57.881Z,51.83
2022-10-23T01:04:57.853Z,49.05
2022-10-23T01:05:57.857Z,49.49
2022-10-23T01:06:57.837Z,51.85
2022-10-23T01:07:57.832Z,51.21
2022-10-23T01:08:57.838Z,50.43
2022-10-23T01:09:57.825Z,54.73
2022-10-23T01:10:57.812Z,54.94
2022-10-23T01:11:57.815Z,52.51
2022-10-23T01:12:57.804Z,51.35
2022-10-23T01:13:57.851Z,49.24
2022-10-23T01:14:57.801Z,51.46
2022-10-23T01:15:57.780Z,46.95
2022-10-23T01:16:57.776Z,46.83
2022-10-23T01:17:57.782Z,49.12
2022-10-23T01:18:57.756Z,52.69
2022-10-23T01:19:57.765Z,50.09
2022-10-23T01:20:57.741Z,51.54
2022-10-23T01:21:57.737Z,46.37
2022-10-23T01:22:58.733Z,49.55
2022-10-23T01:23:57.720Z,48.61
2022-10-23T01:24:57.730Z,48.58
2022-10-23T01:25:57.704Z,49.24
2022-10-23T01:26:57.709Z,46.51
2022-10-23T01:27:57.706Z,49.19
2022-10-23T01:28:57.725Z,48.92
2022-10-23T01:29:57.693Z,51.06
2022-10-23T01:30:57.681Z,47.46
2022-10-23T01:31:57.660Z,48.52
2022-10-23T01:32:57.669Z,50.45
2022-10-23T01:33:57.662Z,51.90
2022-10-23T01:34:57.706Z,49.74
2022-10-23T01:35:57.643Z,48.30
2022-10-23T01:36:57.634Z,48.12
2022-10-23T01:37:57.639Z,51.27
2022-10-23T01:38:57.710Z,48.35
2022-10-23T01:39:57.617Z,48.09
2022-10-23T01:40:57.611Z,49.71
2022-10-23T01:41:57.601Z,50.42
2022-10-23T01:42:57.596Z,45.79
2022-10-23T01:43:57.582Z,51.41
2022-10-23T01:44:57.598Z,51.65
2022-10-23T01:45:57.577Z,49.96
2022-10-23T01:46:57.565Z,47.92
2022-10-23T01:47:57.561Z,48.78
2022-10-23T01:48:57.556Z,46.37
2022-10-23T01:49:57.567Z,49.97
2022-10-23T01:50:57.550Z,48.68
2022-10-23T01:51:57.533Z,46.27
2022-10-23T01:52:57.525Z,50.16
2022-10-23T01:53:57.529Z,50.32
2022-10-23T01:54:57.517Z,46.63
2022-10-23T01:55:57.617Z,45.60
2022-10-23T01:56:57.501Z,48.76
2022-10-23T01:57:57.496Z,49.60
2022-10-23T01:58:57.482Z,52.31
2022-10-23T01:59:57.487Z,47.13
2022-10-23T02:00:57.582Z,46.97
2022-10-23T02:01:57.569Z,51.15
2022-10-23T02:02:57.466Z,49.97
2022-10-23T02:04:57.453Z,48.28
2022-10-23T02:05:57.450Z,48.90
2022-10-23T02:06:57.448Z,49.69
2022-10-23T02:07:57.425Z,50.55
2022-10-23T02:08:57.421Z,48.27
2022-10-23T02:09:57.612Z,48.62
2022-10-23T02:10:57.405Z,50.98
2022-10-23T02:11:57.501Z,45.84
2022-10-23T02:12:57.420Z,49.97
2022-10-23T02:13:57.380Z,49.13
2022-10-23T02:14:58.378Z,48.19
2022-10-23T02:15:57.376Z,49.32
2022-10-23T02:16:57.356Z,48.63
2022-10-23T02:17:57.349Z,49.10
2022-10-23T02:18:57.349Z,47.26
2022-10-23T02:19:57.328Z,51.96
2022-10-23T02:20:58.325Z,50.77
2022-10-23T02:21:57.349Z,46.36
2022-10-23T02:22:57.308Z,45.70
2022-10-23T02:23:57.312Z,45.79
2022-10-23T02:24:57.313Z,46.23
2022-10-23T02:25:57.296Z,47.54
2022-10-23T02:26:57.317Z,48.50
2022-10-23T02:27:57.293Z,52.62
2022-10-23T02:28:57.336Z,54.43
2022-10-23T02:29:57.272Z,51.88
2022-10-23T02:30:57.260Z,47.60
2022-10-23T02:31:57.268Z,48.88
2022-10-23T02:32:57.292Z,51.21
2022-10-23T02:33:57.245Z,51.56
2022-10-23T02:34:57.240Z,47.39
2022-10-23T02:35:57.225Z,48.34
2022-10-23T02:36:58.229Z,46.95
2022-10-23T02:37:57.253Z,49.78
2022-10-23T02:38:57.212Z,48.81
2022-10-23T02:39:57.204Z,47.98
2022-10-23T02:40:57.194Z,50.79
2022-10-23T02:41:57.177Z,49.57
2022-10-23T02:42:57.185Z,47.67
2022-10-23T02:43:57.323Z,49.57
2022-10-23T02:44:57.161Z,49.62
2022-10-23T02:45:57.180Z,51.76
2022-10-23T02:46:57.151Z,52.89
2022-10-23T02:47:57.142Z,49.98
2022-10-23T02:48:57.148Z,51.25
2022-10-23T02:49:57.138Z,53.47
2022-10-23T02:50:57.150Z,46.39
2022-10-23T02:51:57.136Z,48.09
2022-10-23T02:52:57.117Z,45.84
2022-10-23T02:54:57.105Z,52.18
2022-10-23T02:55:57.093Z,53.27
2022-10-23T02:56:57.072Z,53.21
2022-10-23T02:57:57.076Z,50.64
2022-10-23T02:58:57.100Z,48.70
2022-10-23T02:59:57.056Z,50.31
2022-10-23T03:00:57.113Z,48.19
2022-10-23T03:01:57.218Z,51.85
2022-10-23T03:02:57.035Z,48.69
2022-10-23T03:03:57.032Z,49.59
2022-10-23T03:04:57.037Z,50.18
2022-10-23T03:05:57.054Z,50.17
2022-10-23T03:06:57.001Z,50.02
2022-10-23T03:07:57.000Z,50.96
2022-10-23T03:08:57.004Z,51.07
2022-10-23T03:09:57.001Z,51.06
2022-10-23T03:10:56.990Z,51.52
2022-10-23T03:11:57.008Z,51.45
2022-10-23T03:12:56.965Z,51.45
2022-10-23T03:13:56.970Z,47.81
2022-10-23T03:14:56.980Z,49.96
2022-10-23T03:15:56.952Z,52.25
2022-10-23T03:16:56.941Z,48.52
2022-10-23T03:17:56.947Z,52.78
2022-10-23T03:18:56.937Z,50.77
2022-10-23T03:19:56.932Z,49.99
2022-10-23T03:20:56.924Z,50.86
2022-10-23T03:21:56.925Z,51.43
2022-10-23T03:22:56.900Z,50.26
2022-10-23T03:23:56.892Z,48.80
2022-10-23T03:24:56.895Z,49.69
2022-10-23T03:25:56.896Z,49.28
2022-10-23T03:26:56.916Z,50.73
2022-10-23T03:27:56.860Z,48.51
2022-10-23T03:28:56.848Z,51.89
2022-10-23T03:29:56.996Z,53.37
2022-10-23T03:30:56.877Z,50.61
2022-10-23T03:31:56.870Z,49.92
2022-10-23T03:32:56.810Z,49.92
2022-10-23T03:33:57.818Z,53.60
2022-10-23T03:34:57.817Z,49.81
2022-10-23T03:35:56.799Z,48.81
2022-10-23T03:36:56.810Z,48.89
2022-10-23T03:37:56.855Z,49.46
2022-10-23T03:38:56.786Z,51.73
2022-10-23T03:39:56.786Z,49.27
2022-10-23T03:40:56.779Z,50.30
2022-10-23T03:41:56.766Z,50.71
2022-10-23T03:42:56.782Z,50.15
2022-10-23T03:43:56.777Z,48.46
2022-10-23T03:44:56.742Z,48.76
2022-10-23T03:45:56.747Z,49.15
2022-10-23T03:46:56.726Z,50.60
2022-10-23T03:47:56.726Z,52.26
2022-10-23T03:48:56.771Z,49.85
2022-10-23T03:49:56.705Z,53.84
2022-10-23T03:50:56.698Z,50.41
2022-10-23T03:51:56.696Z,49.25
2022-10-23T03:52:56.682Z,47.46
2022-10-23T03:53:56.695Z,48.71
2022-10-23T03:54:56.683Z,51.83
2022-10-23T03:55:56.674Z,47.77
2022-10-23T03:56:57.666Z,49.54
2022-10-23T03:57:56.654Z,50.07
2022-10-23T03:58:56.663Z,48.27
2022-10-23T03:59:56.654Z,49.81
2022-10-23T04:00:56.695Z,50.00
2022-10-23T04:01:56.806Z,49.82
2022-10-23T04:02:56.610Z,52.21
2022-10-23T04:03:56.645Z,51.48
2022-10-23T04:04:56.606Z,50.45
2022-10-23T04:05:56.606Z,50.89
2022-10-23T04:06:56.589Z,48.66
2022-10-23T04:07:56.594Z,52.12
2022-10-23T04:08:56.591Z,51.35
2022-10-23T04:09:56.578Z,49.94
2022-10-23T04:10:56.583Z,48.81
2022-10-23T04:11:56.572Z,52.36
2022-10-23T04:12:56.554Z,49.62
2022-10-23T04:13:56.562Z,50.56
2022-10-23T04:14:56.534Z,51.64
2022-10-23T04:15:56.536Z,50.33
2022-10-23T04:16:56.529Z,50.36
2022-10-23T04:17:56.506Z,48.58
2022-10-23T04:18:57.510Z,53.76
2022-10-23T04:19:56.503Z,51.82
2022-10-23T04:20:56.515Z,51.44
2022-10-23T04:21:56.495Z,47.50
2022-10-23T04:22:56.484Z,50.58
2022-10-23T04:23:56.480Z,51.88
2022-10-23T04:24:56.469Z,50.55
2022-10-23T04:25:56.486Z,52.63
2022-10-23T04:26:56.459Z,48.88
2022-10-23T04:27:56.446Z,48.04
2022-10-23T04:28:56.442Z,50.83
2022-10-23T04:29:59.009Z,52.71
2022-10-23T04:30:56.442Z,51.84
2022-10-23T04:31:56.414Z,52.04
2022-10-23T04:32:56.429Z,52.20
2022-10-23T04:33:56.464Z,51.60
2022-10-23T04:34:56.452Z,49.34
2022-10-23T04:35:56.394Z,50.45
2022-10-23T04:36:56.398Z,52.83
2022-10-23T04:37:56.390Z,51.06
2022-10-23T04:38:56.375Z,52.66
2022-10-23T04:39:56.374Z,51.29
2022-10-23T04:40:56.369Z,54.90
2022-10-23T04:41:56.378Z,52.55
2022-10-23T04:42:56.342Z,54.29
2022-10-23T04:43:56.338Z,49.69
2022-10-23T04:44:56.342Z,47.87
2022-10-23T04:45:56.330Z,47.15
2022-10-23T04:46:56.343Z,50.47
2022-10-23T04:47:56.330Z,50.98
2022-10-23T04:48:56.313Z,51.65
2022-10-23T04:49:56.301Z,50.89
2022-10-23T04:50:56.295Z,49.16
2022-10-23T04:51:56.281Z,50.28
2022-10-23T04:52:56.294Z,52.52
2022-10-23T04:53:56.267Z,51.20
2022-10-23T04:54:56.258Z,50.79
2022-10-23T04:55:56.262Z,50.31
2022-10-23T04:56:56.252Z,50.40
2022-10-23T04:57:56.258Z,49.31
2022-10-23T04:58:56.266Z,52.31
2022-10-23T04:59:56.221Z,51.08
2022-10-23T05:00:56.458Z,52.31
2022-10-23T05:01:56.264Z,52.44
2022-10-23T05:02:56.225Z,53.32
2022-10-23T05:03:56.221Z,50.16
2022-10-23T05:04:56.190Z,53.25
2022-10-23T05:05:56.189Z,51.69
2022-10-23T05:06:56.182Z,50.86
2022-10-23T05:07:56.170Z,54.03
2022-10-23T05:08:56.173Z,51.50
2022-10-23T05:09:56.157Z,53.19
2022-10-23T05:10:56.152Z,53.15
2022-10-23T05:11:56.141Z,54.49
2022-10-23T05:12:56.142Z,50.74
2022-10-23T05:13:56.150Z,50.07
2022-10-23T05:14:56.117Z,53.10
2022-10-23T05:15:56.106Z,51.49
2022-10-23T05:16:56.110Z,51.17
2022-10-23T05:17:56.113Z,52.05
2022-10-23T05:18:56.107Z,51.96
2022-10-23T05:19:56.089Z,51.09
2022-10-23T05:20:56.076Z,53.96
2022-10-23T05:21:56.129Z,52.08
2022-10-23T05:22:56.066Z,51.32
2022-10-23T05:23:56.120Z,51.30
2022-10-23T05:24:56.045Z,51.64
2022-10-23T05:25:56.045Z,51.24
2022-10-23T05:26:56.033Z,47.77
2022-10-23T05:27:56.034Z,51.08
2022-10-23T05:28:56.029Z,53.63
2022-10-23T05:29:56.005Z,54.77
2022-10-23T05:30:55.993Z,50.93
2022-10-23T05:31:57.005Z,50.43
2022-10-23T05:32:55.986Z,53.87
2022-10-23T05:33:55.989Z,55.84
2022-10-23T05:34:55.983Z,51.24
2022-10-23T05:35:55.992Z,53.07
2022-10-23T05:36:55.967Z,51.61
2022-10-23T05:37:55.957Z,51.81
2022-10-23T05:38:55.946Z,53.66
2022-10-23T05:39:55.950Z,54.65
2022-10-23T05:40:55.935Z,54.43
2022-10-23T05:41:55.939Z,52.27
2022-10-23T05:42:55.930Z,49.37
2022-10-23T05:43:55.909Z,56.35
2022-10-23T05:44:55.917Z,55.43
2022-10-23T05:45:55.905Z,53.59
2022-10-23T05:46:55.918Z,53.41
2022-10-23T05:48:05.674Z,54.22
2022-10-23T05:48:56.903Z,54.75
2022-10-23T05:49:55.873Z,53.98
2022-10-23T05:50:55.853Z,54.71
2022-10-23T05:51:55.870Z,54.95
2022-10-23T05:52:55.841Z,52.97
2022-10-23T05:53:55.838Z,51.90
2022-10-23T05:54:55.837Z,53.53
2022-10-23T05:55:55.823Z,52.90
2022-10-23T05:56:55.845Z,54.19
2022-10-23T05:57:55.817Z,51.36
2022-10-23T05:58:55.796Z,55.43
2022-10-23T05:59:55.797Z,56.10
2022-10-23T06:00:55.984Z,53.78
2022-10-23T06:01:56.079Z,51.96
2022-10-23T06:02:55.770Z,55.73
2022-10-23T06:03:55.770Z,55.01
2022-10-23T06:04:55.766Z,56.70
2022-10-23T06:05:55.763Z,56.52
2022-10-23T06:06:55.805Z,53.24
2022-10-23T06:07:56.774Z,53.46
2022-10-23T06:08:55.738Z,49.67
2022-10-23T06:09:55.733Z,52.85
2022-10-23T06:10:55.720Z,57.05
2022-10-23T06:11:55.705Z,54.14
2022-10-23T06:12:55.725Z,52.37
2022-10-23T06:14:55.685Z,52.52
2022-10-23T06:15:55.685Z,54.02
2022-10-23T06:16:55.686Z,55.34
2022-10-23T06:17:55.677Z,52.87
2022-10-23T06:18:55.652Z,56.29
2022-10-23T06:19:55.649Z,54.51
2022-10-23T06:20:55.637Z,55.19
2022-10-23T06:21:55.637Z,55.43
2022-10-23T06:22:55.922Z,55.86
2022-10-23T06:23:55.621Z,53.28
2022-10-23T06:24:55.644Z,54.80
2022-10-23T06:25:55.606Z,56.08
2022-10-23T06:26:55.601Z,55.65
2022-10-23T06:27:55.609Z,54.27
2022-10-23T06:28:55.580Z,54.24
2022-10-23T06:29:55.580Z,53.63
2022-10-23T06:30:55.577Z,56.09
2022-10-23T06:31:55.575Z,56.16
2022-10-23T06:32:55.568Z,57.13
2022-10-23T06:33:55.553Z,54.84
2022-10-23T06:34:55.605Z,55.77
2022-10-23T06:35:55.549Z,56.07
2022-10-23T06:36:55.533Z,54.89
2022-10-23T06:37:55.537Z,53.88
2022-10-23T06:38:55.583Z,54.88
2022-10-23T06:39:55.533Z,53.92
2022-10-23T06:40:55.514Z,57.17
2022-10-23T06:41:55.504Z,57.00
2022-10-23T06:42:55.520Z,56.70
2022-10-23T06:43:55.494Z,57.49
2022-10-23T06:44:55.485Z,56.67
2022-10-23T06:45:55.477Z,53.50
2022-10-23T06:46:55.477Z,54.27
2022-10-23T06:47:55.474Z,57.14
2022-10-23T06:48:55.462Z,55.20
2022-10-23T06:49:55.453Z,56.34
2022-10-23T06:50:55.429Z,55.67
2022-10-23T06:51:55.497Z,57.42
2022-10-23T06:52:55.450Z,55.63
2022-10-23T06:53:55.434Z,54.33
2022-10-23T06:54:55.413Z,54.67
2022-10-23T06:55:55.664Z,55.16
2022-10-23T06:56:55.405Z,55.85
2022-10-23T06:57:55.393Z,56.24
2022-10-23T06:58:55.413Z,56.22
2022-10-23T06:59:55.374Z,57.10
2022-10-23T07:00:55.447Z,54.21
2022-10-23T07:02:55.353Z,55.50
2022-10-23T07:03:55.360Z,57.34
2022-10-23T07:04:55.337Z,59.15
2022-10-23T07:05:55.341Z,56.94
2022-10-23T07:06:55.322Z,56.57
2022-10-23T07:07:55.320Z,55.26
2022-10-23T07:08:55.333Z,56.50
2022-10-23T07:09:55.302Z,56.61
2022-10-23T07:10:55.342Z,55.47
2022-10-23T07:11:55.308Z,56.61
2022-10-23T07:12:55.291Z,56.34
2022-10-23T07:13:55.276Z,54.66
2022-10-23T07:14:55.285Z,56.45
2022-10-23T07:15:55.292Z,58.56
2022-10-23T07:16:55.256Z,56.62
2022-10-23T07:17:55.252Z,56.01
2022-10-23T07:18:55.255Z,53.99
2022-10-23T07:19:55.269Z,55.94
2022-10-23T07:20:55.242Z,54.45
2022-10-23T07:21:55.225Z,56.02
2022-10-23T07:22:55.223Z,56.65
2022-10-23T07:23:55.204Z,56.85
2022-10-23T07:24:55.236Z,55.59
2022-10-23T07:25:55.198Z,56.81
2022-10-23T07:26:55.199Z,58.43
2022-10-23T07:27:55.190Z,55.81
2022-10-23T07:28:55.184Z,54.93
2022-10-23T07:29:55.181Z,56.90
2022-10-23T07:30:55.170Z,57.20
2022-10-23T07:31:55.157Z,56.30
2022-10-23T07:32:55.152Z,57.85
2022-10-23T07:33:55.148Z,57.39
2022-10-23T07:34:55.145Z,58.30
2022-10-23T07:35:55.140Z,55.71
2022-10-23T07:36:55.140Z,56.28
2022-10-23T07:37:55.126Z,58.07
2022-10-23T07:38:55.128Z,57.64
2022-10-23T07:39:55.114Z,56.71
2022-10-23T07:40:55.100Z,56.79
2022-10-23T07:41:55.097Z,54.50
2022-10-23T07:42:55.092Z,55.64
2022-10-23T07:43:55.085Z,55.39
2022-10-23T07:44:55.068Z,56.79
2022-10-23T07:45:55.073Z,57.40
2022-10-23T07:46:55.070Z,56.69
2022-10-23T07:47:55.061Z,56.57
2022-10-23T07:48:55.060Z,52.86
2022-10-23T07:49:55.033Z,57.11
2022-10-23T07:50:55.032Z,55.45
2022-10-23T07:51:55.064Z,55.99
2022-10-23T07:52:55.012Z,55.52
2022-10-23T07:53:55.018Z,56.46
2022-10-23T07:54:55.000Z,55.05
2022-10-23T07:55:54.992Z,55.47
2022-10-23T07:56:55.008Z,54.09
2022-10-23T07:57:54.988Z,56.95
2022-10-23T07:58:54.976Z,55.68
2022-10-23T07:59:54.968Z,55.34
2022-10-23T08:00:54.964Z,53.80
2022-10-23T08:01:55.816Z,56.28
2022-10-23T08:02:56.449Z,53.84
2022-10-23T08:03:54.956Z,50.64
2022-10-23T08:04:54.936Z,55.56
2022-10-23T08:05:54.927Z,56.38
2022-10-23T08:06:54.920Z,56.60
2022-10-23T08:07:54.916Z,54.63
2022-10-23T08:08:54.936Z,56.24
2022-10-23T08:09:54.895Z,53.73
2022-10-23T08:10:54.887Z,53.67
2022-10-23T08:11:54.908Z,57.90
2022-10-23T08:12:54.892Z,55.47
2022-10-23T08:13:54.868Z,55.38
2022-10-23T08:14:54.884Z,55.68
2022-10-23T08:15:54.856Z,55.43
2022-10-23T08:16:54.921Z,51.85
2022-10-23T08:17:54.857Z,52.90
2022-10-23T08:18:54.869Z,56.57
2022-10-23T08:19:54.833Z,57.00
2022-10-23T08:20:54.831Z,54.82
2022-10-23T08:21:54.834Z,52.89
2022-10-23T08:22:54.902Z,52.90
2022-10-23T08:23:54.823Z,55.17
2022-10-23T08:24:54.797Z,53.03
2022-10-23T08:25:54.777Z,53.60
2022-10-23T08:26:54.788Z,53.47
2022-10-23T08:27:54.784Z,54.16
2022-10-23T08:28:54.785Z,54.34
2022-10-23T08:29:54.764Z,54.24
2022-10-23T08:30:54.764Z,54.24
2022-10-23T08:31:54.752Z,54.45
2022-10-23T08:32:54.838Z,56.94
2022-10-23T08:33:54.754Z,56.97
2022-10-23T08:34:54.755Z,54.12
2022-10-23T08:35:54.720Z,54.25
2022-10-23T08:36:54.728Z,52.93
2022-10-23T08:37:54.719Z,51.99
2022-10-23T08:38:54.720Z,53.27
2022-10-23T08:39:54.696Z,55.21
2022-10-23T08:40:54.724Z,53.20
2022-10-23T08:41:54.692Z,54.55
2022-10-23T08:42:54.850Z,54.56
2022-10-23T08:43:54.735Z,57.02
2022-10-23T08:44:54.655Z,54.82
2022-10-23T08:45:54.664Z,53.92
2022-10-23T08:46:54.671Z,54.37
2022-10-23T08:47:54.639Z,56.27
2022-10-23T08:48:54.657Z,56.94
2022-10-23T08:49:54.639Z,57.64
2022-10-23T08:50:54.634Z,57.19
2022-10-23T08:51:54.634Z,57.74
2022-10-23T08:52:54.691Z,54.94
2022-10-23T08:53:54.612Z,53.90
2022-10-23T08:54:54.599Z,54.35
2022-10-23T08:55:54.588Z,55.40
2022-10-23T08:56:54.579Z,56.00
2022-10-23T08:57:54.579Z,55.17
2022-10-23T08:58:54.569Z,53.80
2022-10-23T08:59:54.555Z,52.18
2022-10-23T09:00:54.650Z,53.84
2022-10-23T09:01:54.629Z,54.25
2022-10-23T09:02:54.631Z,54.56
2022-10-23T09:03:54.553Z,52.98
2022-10-23T09:04:54.523Z,53.42
2022-10-23T09:05:54.509Z,52.75
2022-10-23T09:06:54.537Z,52.85
2022-10-23T09:07:54.511Z,53.00
2022-10-23T09:08:54.496Z,51.16
2022-10-23T09:09:54.547Z,52.16
2022-10-23T09:10:54.491Z,53.50
2022-10-23T09:11:54.475Z,54.26
2022-10-23T09:12:54.564Z,53.13
2022-10-23T09:13:54.467Z,52.11
2022-10-23T09:14:54.460Z,51.92
2022-10-23T09:15:54.455Z,51.79
2022-10-23T09:16:54.451Z,51.58
2022-10-23T09:17:54.451Z,49.34
2022-10-23T09:18:54.436Z,50.81
2022-10-23T09:19:54.495Z,50.69
2022-10-23T09:20:54.455Z,50.29
2022-10-23T09:21:54.410Z,50.45
2022-10-23T09:22:54.491Z,48.84
2022-10-23T09:23:54.399Z,48.16
2022-10-23T09:24:54.407Z,51.30
2022-10-23T09:25:54.416Z,49.88
2022-10-23T09:26:54.482Z,50.44
2022-10-23T09:27:56.207Z,50.06
2022-10-23T09:28:55.377Z,51.21
2022-10-23T09:29:54.375Z,51.69
2022-10-23T09:30:54.372Z,52.48
2022-10-23T09:31:54.360Z,51.34
2022-10-23T09:32:54.396Z,51.88
2022-10-23T09:33:54.370Z,51.89
2022-10-23T09:34:54.344Z,54.09
2022-10-23T09:35:54.334Z,52.62
2022-10-23T09:37:54.319Z,55.15
2022-10-23T09:38:54.316Z,54.97
2022-10-23T09:39:54.303Z,55.20
2022-10-23T09:40:54.303Z,53.12
2022-10-23T09:41:56.918Z,54.95
2022-10-23T09:42:54.375Z,52.66
2022-10-23T09:43:54.278Z,53.06
2022-10-23T09:44:54.271Z,52.35
2022-10-23T09:45:54.263Z,53.94
2022-10-23T09:46:54.296Z,53.33
2022-10-23T09:47:54.271Z,52.79
2022-10-23T09:48:54.256Z,52.47
2022-10-23T09:49:54.270Z,53.64
2022-10-23T09:50:54.235Z,53.68
2022-10-23T09:51:54.249Z,53.40
2022-10-23T09:52:54.228Z,55.38
2022-10-23T09:53:54.222Z,54.89
2022-10-23T09:54:54.212Z,57.43
2022-10-23T09:55:54.223Z,53.65
2022-10-23T09:56:54.194Z,54.09
2022-10-23T09:57:54.221Z,54.22
2022-10-23T09:58:54.184Z,52.72
2022-10-23T09:59:54.173Z,52.60
2022-10-23T10:00:55.418Z,54.67
2022-10-23T10:01:54.313Z,54.97
2022-10-23T10:02:54.180Z,54.88
2022-10-23T10:03:54.144Z,53.69
2022-10-23T10:04:54.142Z,52.73
2022-10-23T10:05:54.142Z,52.91
2022-10-23T10:06:54.126Z,53.92
2022-10-23T10:07:54.136Z,53.26
2022-10-23T10:08:54.106Z,53.42
2022-10-23T10:09:54.106Z,53.97
2022-10-23T10:10:54.134Z,53.23
2022-10-23T10:11:54.108Z,53.23
2022-10-23T10:12:54.102Z,57.48
2022-10-23T10:13:54.083Z,52.53
2022-10-23T10:14:54.074Z,52.78
2022-10-23T10:15:54.078Z,54.06
2022-10-23T10:16:54.068Z,53.03
2022-10-23T10:17:54.055Z,53.76
2022-10-23T10:18:54.059Z,53.89
2022-10-23T10:19:54.227Z,52.97
2022-10-23T10:20:54.078Z,52.17
2022-10-23T10:21:54.036Z,52.48
2022-10-23T10:22:54.039Z,51.58
2022-10-23T10:23:54.015Z,53.58
2022-10-23T10:24:54.016Z,52.84
2022-10-23T10:25:54.016Z,54.41
2022-10-23T10:26:54.016Z,54.09
2022-10-23T10:27:54.011Z,53.89
2022-10-23T10:28:53.980Z,52.79
2022-10-23T10:29:53.976Z,53.34
2022-10-23T10:30:53.968Z,54.34
2022-10-23T10:31:53.975Z,55.03
2022-10-23T10:32:53.952Z,55.24
2022-10-23T10:33:53.955Z,53.83
2022-10-23T10:34:53.959Z,52.98
2022-10-23T10:35:53.940Z,54.24
2022-10-23T10:36:53.949Z,55.24
2022-10-23T10:37:54.176Z,53.87
2022-10-23T10:38:53.919Z,54.44
2022-10-23T10:39:53.907Z,54.54
2022-10-23T10:40:53.900Z,53.04
2022-10-23T10:41:53.961Z,52.97
2022-10-23T10:42:53.931Z,54.31
2022-10-23T10:43:53.876Z,55.85
2022-10-23T10:44:53.872Z,55.58
2022-10-23T10:45:53.870Z,55.71
2022-10-23T10:46:53.871Z,54.32
2022-10-23T10:47:53.879Z,56.20
2022-10-23T10:48:53.848Z,55.75
2022-10-23T10:49:53.835Z,56.64
2022-10-23T10:50:53.840Z,55.40
2022-10-23T10:51:53.837Z,56.35
2022-10-23T10:52:53.836Z,55.53
2022-10-23T10:53:53.828Z,55.48
2022-10-23T10:54:53.835Z,55.94
2022-10-23T10:55:53.811Z,55.47
2022-10-23T10:56:53.803Z,55.87
2022-10-23T10:57:55.851Z,56.04
2022-10-23T10:58:54.835Z,57.23
2022-10-23T10:59:53.835Z,55.47
2022-10-23T11:00:53.811Z,54.72
2022-10-23T11:01:53.893Z,55.12
2022-10-23T11:02:53.760Z,54.75
2022-10-23T11:03:53.772Z,54.73
2022-10-23T11:04:53.747Z,55.57
2022-10-23T11:05:53.783Z,54.91
2022-10-23T11:06:53.732Z,52.06
2022-10-23T11:07:53.719Z,55.72
2022-10-23T11:08:58.077Z,54.48
2022-10-23T11:09:55.839Z,55.00
2022-10-23T11:10:53.695Z,55.99
2022-10-23T11:11:54.699Z,58.62
2022-10-23T11:12:53.687Z,55.08
2022-10-23T11:13:53.683Z,53.93
2022-10-23T11:14:53.696Z,55.50
2022-10-23T11:15:53.667Z,54.33
2022-10-23T11:16:53.657Z,56.42
2022-10-23T11:17:53.651Z,53.44
2022-10-23T11:18:53.643Z,52.44
2022-10-23T11:19:53.856Z,53.27
2022-10-23T11:20:53.627Z,53.41
2022-10-23T11:21:53.624Z,53.53
2022-10-23T11:22:53.617Z,53.15
2022-10-23T11:23:53.599Z,54.14
2022-10-23T11:24:55.852Z,54.71
2022-10-23T11:25:53.610Z,54.11
2022-10-23T11:26:53.655Z,55.00
2022-10-23T11:27:53.597Z,53.11
2022-10-23T11:28:53.582Z,54.91
2022-10-23T11:29:53.570Z,53.42
2022-10-23T11:30:53.571Z,54.50
2022-10-23T11:31:53.563Z,54.76
2022-10-23T11:32:53.538Z,52.88
2022-10-23T11:33:53.543Z,52.59
2022-10-23T11:34:53.531Z,53.37
2022-10-23T11:35:53.516Z,53.13
2022-10-23T11:36:53.523Z,53.50
2022-10-23T11:37:53.527Z,53.95
2022-10-23T11:38:53.492Z,53.18
2022-10-23T11:39:53.499Z,54.01
2022-10-23T11:40:53.489Z,53.80
2022-10-23T11:41:53.496Z,54.02
2022-10-23T11:42:53.471Z,54.67
2022-10-23T11:43:53.471Z,54.92
2022-10-23T11:44:53.488Z,58.97
2022-10-23T11:45:53.447Z,54.64
2022-10-23T11:46:53.462Z,55.31
2022-10-23T11:47:53.467Z,54.96
2022-10-23T11:48:53.448Z,55.29
2022-10-23T11:49:53.435Z,55.41
2022-10-23T11:50:53.410Z,55.52
2022-10-23T11:51:53.412Z,54.62
2022-10-23T11:53:12.571Z,54.75
2022-10-23T11:53:55.406Z,55.45
2022-10-23T11:54:53.383Z,56.99
2022-10-23T11:55:53.383Z,56.84
2022-10-23T11:56:53.363Z,56.74
2022-10-23T11:57:53.395Z,57.10
2022-10-23T11:58:54.528Z,58.05
2022-10-23T11:59:53.364Z,58.07
2022-10-23T12:00:53.349Z,57.58
2022-10-23T12:01:53.385Z,57.03
2022-10-23T12:02:58.394Z,56.56
2022-10-23T12:03:54.335Z,56.10
2022-10-23T12:04:53.330Z,57.39
2022-10-23T12:05:53.315Z,57.15
2022-10-23T12:06:53.315Z,57.77
2022-10-23T12:07:53.299Z,55.84
2022-10-23T12:08:53.295Z,57.62
2022-10-23T12:09:53.299Z,57.41
2022-10-23T12:10:53.479Z,58.41
2022-10-23T12:11:53.276Z,56.47
2022-10-23T12:12:53.282Z,57.95
2022-10-23T12:13:53.258Z,56.93
2022-10-23T12:14:53.254Z,57.01
2022-10-23T12:15:55.962Z,58.47
2022-10-23T12:16:55.235Z,59.13
2022-10-23T12:17:53.243Z,59.44
2022-10-23T12:18:53.296Z,58.44
2022-10-23T12:19:53.207Z,57.14
2022-10-23T12:20:53.235Z,57.18
2022-10-23T12:21:53.205Z,56.42
2022-10-23T12:22:53.192Z,57.15
2022-10-23T12:23:53.190Z,57.95
2022-10-23T12:24:53.180Z,56.32
2022-10-23T12:25:53.175Z,56.97
2022-10-23T12:26:53.186Z,55.29
2022-10-23T12:27:53.154Z,57.08
2022-10-23T12:28:53.150Z,55.77
2022-10-23T12:29:53.162Z,56.81
2022-10-23T12:31:53.142Z,58.29
2022-10-23T12:32:53.190Z,58.13
2022-10-23T12:33:53.115Z,58.12
2022-10-23T12:34:53.134Z,55.52
2022-10-23T12:35:53.098Z,57.72
2022-10-23T12:36:53.125Z,55.59
2022-10-23T12:37:53.090Z,55.79
2022-10-23T12:38:53.082Z,56.25
2022-10-23T12:39:53.074Z,58.12
2022-10-23T12:40:53.077Z,56.68
2022-10-23T12:41:53.072Z,57.96
2022-10-23T12:42:53.055Z,57.95
2022-10-23T12:43:53.069Z,56.49
2022-10-23T12:44:53.055Z,58.54
2022-10-23T12:45:53.038Z,58.12
2022-10-23T12:46:53.035Z,60.18
2022-10-23T12:47:53.029Z,58.60
2022-10-23T12:48:53.013Z,57.67
2022-10-23T12:49:53.006Z,56.92
2022-10-23T12:50:53.018Z,57.41
2022-10-23T12:51:52.990Z,57.12
2022-10-23T12:52:52.995Z,55.15
2022-10-23T12:53:52.996Z,59.09
2022-10-23T12:54:52.969Z,56.58
2022-10-23T12:55:53.010Z,55.94
2022-10-23T12:56:52.970Z,56.78
2022-10-23T12:57:52.953Z,57.18
2022-10-23T12:58:52.945Z,56.52